KYIP/YIP METAR and TAF weather

Enter ICAO airport designator
Station Type Date Time Source
KYIP METAR 2019/08/19 07:53 UTC NOAA

KYIP 190753Z 27008KT 9SM SCT006 SCT047 22/19 A2995 RMK AO2 SLP133 T02170194


Station Type Date Time Source
KYIP Decoded METAR 2019/08/19 07:53 UTC NOAA

Station name not available
Aug 19, 2019 - 03:53 AM EDT / 2019.08.19 0753 UTC
Wind: from the W (270 degrees) at 9 MPH (8 KT):0
Visibility: 9 mile(s):0
Sky conditions: partly cloudy
Temperature: 71.1 F (21.7 C)
Dew Point: 66.9 F (19.4 C)
Relative Humidity: 86%
Pressure (altimeter): 29.95 in. Hg (1014 hPa)
ob: KYIP 190753Z 27008KT 9SM SCT006 SCT047 22/19 A2995 RMK AO2 SLP133 T02170194
cycle: 8

Station Type Date Time Source
KYIP TAF 2019/08/19 07:54 UTC NOAA

TAF
AMD KYIP 190651Z 1907/2006 24006KT P6SM SCT006 SCT040
TEMPO 1907/1911 5SM BR OVC006
FM191300 36004KT P6SM BKN030
FM191800 VRB04KT P6SM BKN040

Example: see airport list